sensor_id;sensor_type;location;lat;lon;timestamp;P1;durP1;ratioP1;P2;durP2;ratioP2
25731;SDS011;13585;50.864;4.406;2023-06-04T00:02:16;1.70;;;0.93;;
25731;SDS011;13585;50.864;4.406;2023-06-04T00:04:42;1.48;;;1.23;;
25731;SDS011;13585;50.864;4.406;2023-06-04T00:07:08;1.73;;;1.33;;
25731;SDS011;13585;50.864;4.406;2023-06-04T00:09:34;2.03;;;1.55;;
25731;SDS011;13585;50.864;4.406;2023-06-04T00:12:00;1.85;;;1.30;;
25731;SDS011;13585;50.864;4.406;2023-06-04T00:14:25;1.58;;;1.40;;
25731;SDS011;13585;50.864;4.406;2023-06-04T00:16:51;1.98;;;1.20;;
25731;SDS011;13585;50.864;4.406;2023-06-04T00:19:17;1.85;;;1.30;;
25731;SDS011;13585;50.864;4.406;2023-06-04T00:21:42;2.38;;;1.33;;
25731;SDS011;13585;50.864;4.406;2023-06-04T00:24:08;2.05;;;1.30;;
25731;SDS011;13585;50.864;4.406;2023-06-04T00:26:33;2.85;;;1.33;;
25731;SDS011;13585;50.864;4.406;2023-06-04T00:29:00;1.42;;;1.30;;
25731;SDS011;13585;50.864;4.406;2023-06-04T00:31:25;2.15;;;1.45;;
25731;SDS011;13585;50.864;4.406;2023-06-04T00:33:51;1.90;;;1.15;;
25731;SDS011;13585;50.864;4.406;2023-06-04T00:36:17;1.65;;;1.15;;
25731;SDS011;13585;50.864;4.406;2023-06-04T00:38:43;2.97;;;1.30;;
25731;SDS011;13585;50.864;4.406;2023-06-04T00:41:08;1.52;;;1.10;;
25731;SDS011;13585;50.864;4.406;2023-06-04T00:43:34;2.15;;;1.45;;
25731;SDS011;13585;50.864;4.406;2023-06-04T00:46:01;2.50;;;1.27;;
25731;SDS011;13585;50.864;4.406;2023-06-04T00:48:28;3.05;;;1.17;;
25731;SDS011;13585;50.864;4.406;2023-06-04T00:50:55;1.58;;;1.30;;
25731;SDS011;13585;50.864;4.406;2023-06-04T00:53:22;3.40;;;1.30;;
25731;SDS011;13585;50.864;4.406;2023-06-04T00:55:49;2.08;;;1.25;;
25731;SDS011;13585;50.864;4.406;2023-06-04T00:58:16;1.63;;;1.17;;
25731;SDS011;13585;50.864;4.406;2023-06-04T01:00:42;2.78;;;1.20;;
25731;SDS011;13585;50.864;4.406;2023-06-04T01:03:10;1.55;;;1.20;;
25731;SDS011;13585;50.864;4.406;2023-06-04T01:06:15;2.22;;;1.20;;
25731;SDS011;13585;50.864;4.406;2023-06-04T01:08:38;2.35;;;1.27;;
25731;SDS011;13585;50.864;4.406;2023-06-04T01:11:07;1.42;;;1.15;;
25731;SDS011;13585;50.864;4.406;2023-06-04T01:13:33;1.63;;;1.25;;
25731;SDS011;13585;50.864;4.406;2023-06-04T01:15:59;1.85;;;1.20;;
25731;SDS011;13585;50.864;4.406;2023-06-04T01:18:27;2.85;;;1.33;;
25731;SDS011;13585;50.864;4.406;2023-06-04T01:21:01;1.75;;;1.20;;
25731;SDS011;13585;50.864;4.406;2023-06-04T01:23:34;1.38;;;1.20;;
25731;SDS011;13585;50.864;4.406;2023-06-04T01:26:10;1.73;;;1.23;;
25731;SDS011;13585;50.864;4.406;2023-06-04T01:28:37;1.20;;;1.05;;
25731;SDS011;13585;50.864;4.406;2023-06-04T01:31:03;1.45;;;1.08;;
25731;SDS011;13585;50.864;4.406;2023-06-04T01:33:32;2.25;;;1.45;;
25731;SDS011;13585;50.864;4.406;2023-06-04T01:35:58;4.40;;;1.60;;
25731;SDS011;13585;50.864;4.406;2023-06-04T01:38:25;1.52;;;1.30;;
25731;SDS011;13585;50.864;4.406;2023-06-04T01:40:51;1.77;;;1.25;;
25731;SDS011;13585;50.864;4.406;2023-06-04T01:43:21;2.17;;;1.50;;
25731;SDS011;13585;50.864;4.406;2023-06-04T01:45:47;1.30;;;1.10;;
25731;SDS011;13585;50.864;4.406;2023-06-04T01:48:13;2.28;;;1.38;;
25731;SDS011;13585;50.864;4.406;2023-06-04T01:50:39;1.60;;;1.40;;
25731;SDS011;13585;50.864;4.406;2023-06-04T01:53:04;1.92;;;1.35;;
25731;SDS011;13585;50.864;4.406;2023-06-04T01:55:31;1.85;;;1.25;;
25731;SDS011;13585;50.864;4.406;2023-06-04T01:57:58;2.10;;;1.50;;
25731;SDS011;13585;50.864;4.406;2023-06-04T02:00:25;2.15;;;1.33;;
25731;SDS011;13585;50.864;4.406;2023-06-04T02:02:51;1.90;;;1.40;;
25731;SDS011;13585;50.864;4.406;2023-06-04T02:05:17;2.92;;;1.30;;
25731;SDS011;13585;50.864;4.406;2023-06-04T02:07:43;2.75;;;1.45;;
25731;SDS011;13585;50.864;4.406;2023-06-04T02:10:11;2.40;;;1.40;;
25731;SDS011;13585;50.864;4.406;2023-06-04T02:12:39;2.28;;;1.45;;
25731;SDS011;13585;50.864;4.406;2023-06-04T02:15:06;2.08;;;1.40;;
25731;SDS011;13585;50.864;4.406;2023-06-04T02:17:35;2.60;;;1.48;;
25731;SDS011;13585;50.864;4.406;2023-06-04T02:20:05;1.95;;;1.38;;
25731;SDS011;13585;50.864;4.406;2023-06-04T02:22:31;2.65;;;1.52;;
25731;SDS011;13585;50.864;4.406;2023-06-04T02:24:56;1.52;;;1.23;;
25731;SDS011;13585;50.864;4.406;2023-06-04T02:27:22;1.73;;;1.30;;
25731;SDS011;13585;50.864;4.406;2023-06-04T02:29:48;2.28;;;1.58;;
25731;SDS011;13585;50.864;4.406;2023-06-04T02:32:13;1.40;;;1.27;;
25731;SDS011;13585;50.864;4.406;2023-06-04T02:34:39;1.77;;;1.50;;
25731;SDS011;13585;50.864;4.406;2023-06-04T02:37:05;2.08;;;1.33;;
25731;SDS011;13585;50.864;4.406;2023-06-04T02:39:31;1.90;;;1.20;;
25731;SDS011;13585;50.864;4.406;2023-06-04T02:41:56;3.10;;;1.58;;
25731;SDS011;13585;50.864;4.406;2023-06-04T02:44:22;3.60;;;1.52;;
25731;SDS011;13585;50.864;4.406;2023-06-04T02:46:47;1.58;;;1.20;;
25731;SDS011;13585;50.864;4.406;2023-06-04T02:49:14;1.73;;;1.40;;
25731;SDS011;13585;50.864;4.406;2023-06-04T02:51:41;2.22;;;1.55;;
25731;SDS011;13585;50.864;4.406;2023-06-04T02:54:09;1.77;;;1.50;;
25731;SDS011;13585;50.864;4.406;2023-06-04T02:56:35;2.40;;;1.60;;
25731;SDS011;13585;50.864;4.406;2023-06-04T02:59:02;2.30;;;1.60;;
25731;SDS011;13585;50.864;4.406;2023-06-04T03:01:28;2.25;;;1.50;;
25731;SDS011;13585;50.864;4.406;2023-06-04T03:03:54;2.08;;;1.50;;
25731;SDS011;13585;50.864;4.406;2023-06-04T03:06:21;2.22;;;1.67;;
25731;SDS011;13585;50.864;4.406;2023-06-04T03:08:47;1.60;;;1.50;;
25731;SDS011;13585;50.864;4.406;2023-06-04T03:11:13;1.42;;;1.30;;
25731;SDS011;13585;50.864;4.406;2023-06-04T03:13:39;3.35;;;1.38;;
25731;SDS011;13585;50.864;4.406;2023-06-04T03:16:05;1.75;;;1.40;;
25731;SDS011;13585;50.864;4.406;2023-06-04T03:21:03;2.65;;;1.55;;
25731;SDS011;13585;50.864;4.406;2023-06-04T03:23:29;2.47;;;1.58;;
25731;SDS011;13585;50.864;4.406;2023-06-04T03:25:55;1.95;;;1.60;;
25731;SDS011;13585;50.864;4.406;2023-06-04T03:28:21;1.30;;;1.20;;
25731;SDS011;13585;50.864;4.406;2023-06-04T03:30:46;2.63;;;1.67;;
25731;SDS011;13585;50.864;4.406;2023-06-04T03:33:12;1.80;;;1.48;;
25731;SDS011;13585;50.864;4.406;2023-06-04T03:35:39;2.28;;;1.60;;
25731;SDS011;13585;50.864;4.406;2023-06-04T03:38:06;1.48;;;1.38;;
25731;SDS011;13585;50.864;4.406;2023-06-04T03:40:33;2.05;;;1.52;;
25731;SDS011;13585;50.864;4.406;2023-06-04T03:42:59;4.20;;;1.80;;
25731;SDS011;13585;50.864;4.406;2023-06-04T03:45:25;2.22;;;1.48;;
25731;SDS011;13585;50.864;4.406;2023-06-04T03:47:51;3.20;;;1.60;;
25731;SDS011;13585;50.864;4.406;2023-06-04T03:50:17;1.98;;;1.42;;
25731;SDS011;13585;50.864;4.406;2023-06-04T03:52:43;2.33;;;1.60;;
25731;SDS011;13585;50.864;4.406;2023-06-04T03:55:09;1.88;;;1.40;;
25731;SDS011;13585;50.864;4.406;2023-06-04T03:57:36;1.63;;;1.42;;
25731;SDS011;13585;50.864;4.406;2023-06-04T04:00:04;2.50;;;1.48;;
25731;SDS011;13585;50.864;4.406;2023-06-04T04:02:31;2.28;;;1.65;;
25731;SDS011;13585;50.864;4.406;2023-06-04T04:04:56;1.70;;;1.30;;
25731;SDS011;13585;50.864;4.406;2023-06-04T04:07:22;2.28;;;1.50;;
25731;SDS011;13585;50.864;4.406;2023-06-04T04:09:49;1.77;;;1.60;;
25731;SDS011;13585;50.864;4.406;2023-06-04T04:12:16;1.60;;;1.50;;
25731;SDS011;13585;50.864;4.406;2023-06-04T04:14:42;3.05;;;1.40;;
25731;SDS011;13585;50.864;4.406;2023-06-04T04:17:07;2.35;;;1.58;;
25731;SDS011;13585;50.864;4.406;2023-06-04T04:19:33;2.28;;;1.48;;
25731;SDS011;13585;50.864;4.406;2023-06-04T04:21:59;2.95;;;1.50;;
25731;SDS011;13585;50.864;4.406;2023-06-04T04:24:25;2.53;;;1.70;;
25731;SDS011;13585;50.864;4.406;2023-06-04T04:26:52;2.25;;;1.63;;
25731;SDS011;13585;50.864;4.406;2023-06-04T04:29:19;1.30;;;1.20;;
25731;SDS011;13585;50.864;4.406;2023-06-04T04:31:49;2.58;;;1.67;;
25731;SDS011;13585;50.864;4.406;2023-06-04T04:34:15;2.03;;;1.70;;
25731;SDS011;13585;50.864;4.406;2023-06-04T04:36:42;2.35;;;1.40;;
25731;SDS011;13585;50.864;4.406;2023-06-04T04:39:17;2.00;;;1.55;;
25731;SDS011;13585;50.864;4.406;2023-06-04T04:41:47;1.90;;;1.50;;
25731;SDS011;13585;50.864;4.406;2023-06-04T04:44:13;1.63;;;1.17;;
25731;SDS011;13585;50.864;4.406;2023-06-04T04:46:39;2.47;;;1.58;;
25731;SDS011;13585;50.864;4.406;2023-06-04T04:49:04;1.83;;;1.48;;
25731;SDS011;13585;50.864;4.406;2023-06-04T04:51:30;1.95;;;1.52;;
25731;SDS011;13585;50.864;4.406;2023-06-04T04:53:55;3.20;;;1.70;;
25731;SDS011;13585;50.864;4.406;2023-06-04T04:56:21;1.95;;;1.52;;
25731;SDS011;13585;50.864;4.406;2023-06-04T04:58:47;1.80;;;1.40;;
25731;SDS011;13585;50.864;4.406;2023-06-04T05:01:13;1.85;;;1.50;;
25731;SDS011;13585;50.864;4.406;2023-06-04T05:03:39;2.42;;;1.52;;
25731;SDS011;13585;50.864;4.406;2023-06-04T05:06:04;1.55;;;1.40;;
25731;SDS011;13585;50.864;4.406;2023-06-04T05:08:30;1.65;;;1.50;;
25731;SDS011;13585;50.864;4.406;2023-06-04T05:10:56;1.63;;;1.42;;
25731;SDS011;13585;50.864;4.406;2023-06-04T05:13:21;1.70;;;1.45;;
25731;SDS011;13585;50.864;4.406;2023-06-04T05:15:47;1.77;;;1.30;;
25731;SDS011;13585;50.864;4.406;2023-06-04T05:18:13;1.80;;;1.30;;
25731;SDS011;13585;50.864;4.406;2023-06-04T05:20:41;1.30;;;1.20;;
25731;SDS011;13585;50.864;4.406;2023-06-04T05:23:08;1.70;;;1.35;;
25731;SDS011;13585;50.864;4.406;2023-06-04T05:25:33;1.80;;;1.42;;
25731;SDS011;13585;50.864;4.406;2023-06-04T05:27:59;2.90;;;1.40;;
25731;SDS011;13585;50.864;4.406;2023-06-04T05:30:25;1.42;;;1.27;;
25731;SDS011;13585;50.864;4.406;2023-06-04T05:32:51;3.00;;;1.50;;
25731;SDS011;13585;50.864;4.406;2023-06-04T05:35:19;1.83;;;1.35;;
25731;SDS011;13585;50.864;4.406;2023-06-04T05:37:45;1.77;;;1.60;;
25731;SDS011;13585;50.864;4.406;2023-06-04T05:40:18;1.88;;;1.30;;
25731;SDS011;13585;50.864;4.406;2023-06-04T05:42:45;1.70;;;1.40;;
25731;SDS011;13585;50.864;4.406;2023-06-04T05:45:11;2.25;;;1.65;;
25731;SDS011;13585;50.864;4.406;2023-06-04T05:47:42;1.67;;;1.58;;
25731;SDS011;13585;50.864;4.406;2023-06-04T05:52:44;1.90;;;1.58;;
25731;SDS011;13585;50.864;4.406;2023-06-04T05:55:09;1.50;;;1.35;;
25731;SDS011;13585;50.864;4.406;2023-06-04T05:57:35;3.00;;;1.35;;
25731;SDS011;13585;50.864;4.406;2023-06-04T06:00:01;1.33;;;1.23;;
25731;SDS011;13585;50.864;4.406;2023-06-04T06:02:31;2.30;;;1.50;;
25731;SDS011;13585;50.864;4.406;2023-06-04T06:04:57;1.75;;;1.10;;
25731;SDS011;13585;50.864;4.406;2023-06-04T06:07:22;1.60;;;1.30;;
25731;SDS011;13585;50.864;4.406;2023-06-04T06:09:48;2.13;;;1.30;;
25731;SDS011;13585;50.864;4.406;2023-06-04T06:12:13;1.60;;;1.50;;
25731;SDS011;13585;50.864;4.406;2023-06-04T06:14:39;1.98;;;1.25;;
25731;SDS011;13585;50.864;4.406;2023-06-04T06:17:05;2.58;;;1.40;;
25731;SDS011;13585;50.864;4.406;2023-06-04T06:19:31;1.52;;;1.20;;
25731;SDS011;13585;50.864;4.406;2023-06-04T06:21:57;2.13;;;1.20;;
25731;SDS011;13585;50.864;4.406;2023-06-04T06:24:23;1.45;;;1.20;;
25731;SDS011;13585;50.864;4.406;2023-06-04T06:26:49;2.92;;;1.25;;
25731;SDS011;13585;50.864;4.406;2023-06-04T06:29:15;2.15;;;1.35;;
25731;SDS011;13585;50.864;4.406;2023-06-04T06:31:41;2.60;;;1.65;;
25731;SDS011;13585;50.864;4.406;2023-06-04T06:34:06;2.13;;;1.35;;
25731;SDS011;13585;50.864;4.406;2023-06-04T06:36:32;2.30;;;1.20;;
25731;SDS011;13585;50.864;4.406;2023-06-04T06:38:57;1.50;;;1.00;;
25731;SDS011;13585;50.864;4.406;2023-06-04T06:41:23;1.83;;;1.20;;
25731;SDS011;13585;50.864;4.406;2023-06-04T06:43:49;2.50;;;1.10;;
25731;SDS011;13585;50.864;4.406;2023-06-04T06:46:15;2.17;;;1.17;;
25731;SDS011;13585;50.864;4.406;2023-06-04T06:48:41;1.80;;;1.20;;
25731;SDS011;13585;50.864;4.406;2023-06-04T06:51:10;1.63;;;1.13;;
25731;SDS011;13585;50.864;4.406;2023-06-04T06:53:36;3.53;;;1.40;;
25731;SDS011;13585;50.864;4.406;2023-06-04T06:56:01;1.73;;;1.20;;
25731;SDS011;13585;50.864;4.406;2023-06-04T06:58:27;1.60;;;1.20;;
25731;SDS011;13585;50.864;4.406;2023-06-04T07:00:52;1.73;;;1.10;;
25731;SDS011;13585;50.864;4.406;2023-06-04T07:03:21;2.05;;;0.95;;
25731;SDS011;13585;50.864;4.406;2023-06-04T07:05:49;1.30;;;1.00;;
25731;SDS011;13585;50.864;4.406;2023-06-04T07:08:15;1.88;;;1.13;;
25731;SDS011;13585;50.864;4.406;2023-06-04T07:10:41;1.30;;;1.00;;
25731;SDS011;13585;50.864;4.406;2023-06-04T07:13:06;2.17;;;1.00;;
25731;SDS011;13585;50.864;4.406;2023-06-04T07:15:32;1.92;;;1.20;;
25731;SDS011;13585;50.864;4.406;2023-06-04T07:17:58;1.67;;;1.20;;
25731;SDS011;13585;50.864;4.406;2023-06-04T07:20:23;1.90;;;1.20;;
25731;SDS011;13585;50.864;4.406;2023-06-04T07:22:49;2.40;;;1.15;;
25731;SDS011;13585;50.864;4.406;2023-06-04T07:25:15;1.27;;;1.00;;
25731;SDS011;13585;50.864;4.406;2023-06-04T07:27:43;1.58;;;0.93;;
25731;SDS011;13585;50.864;4.406;2023-06-04T07:30:09;1.65;;;1.10;;
25731;SDS011;13585;50.864;4.406;2023-06-04T07:32:37;1.20;;;1.10;;
25731;SDS011;13585;50.864;4.406;2023-06-04T07:35:03;1.00;;;0.90;;
25731;SDS011;13585;50.864;4.406;2023-06-04T07:37:31;2.70;;;1.15;;
25731;SDS011;13585;50.864;4.406;2023-06-04T07:40:02;1.05;;;0.90;;
25731;SDS011;13585;50.864;4.406;2023-06-04T07:42:28;1.42;;;1.00;;
25731;SDS011;13585;50.864;4.406;2023-06-04T07:44:54;1.95;;;1.10;;
25731;SDS011;13585;50.864;4.406;2023-06-04T07:47:20;1.40;;;1.10;;
25731;SDS011;13585;50.864;4.406;2023-06-04T07:49:45;1.63;;;1.10;;
25731;SDS011;13585;50.864;4.406;2023-06-04T07:52:11;0.90;;;0.80;;
25731;SDS011;13585;50.864;4.406;2023-06-04T07:54:36;1.42;;;1.10;;
25731;SDS011;13585;50.864;4.406;2023-06-04T07:57:11;1.48;;;1.00;;
25731;SDS011;13585;50.864;4.406;2023-06-04T07:59:37;1.33;;;1.00;;
25731;SDS011;13585;50.864;4.406;2023-06-04T08:02:03;1.17;;;0.80;;
25731;SDS011;13585;50.864;4.406;2023-06-04T08:04:29;1.50;;;1.00;;
25731;SDS011;13585;50.864;4.406;2023-06-04T08:06:54;1.85;;;1.00;;
25731;SDS011;13585;50.864;4.406;2023-06-04T08:09:21;1.00;;;0.90;;
25731;SDS011;13585;50.864;4.406;2023-06-04T08:11:46;3.10;;;1.00;;
25731;SDS011;13585;50.864;4.406;2023-06-04T08:14:19;2.10;;;1.05;;
25731;SDS011;13585;50.864;4.406;2023-06-04T08:16:55;1.38;;;1.13;;
25731;SDS011;13585;50.864;4.406;2023-06-04T08:19:21;1.30;;;1.08;;
25731;SDS011;13585;50.864;4.406;2023-06-04T08:21:48;1.58;;;1.15;;
25731;SDS011;13585;50.864;4.406;2023-06-04T08:24:14;1.30;;;1.00;;
25731;SDS011;13585;50.864;4.406;2023-06-04T08:26:42;1.17;;;0.88;;
25731;SDS011;13585;50.864;4.406;2023-06-04T08:29:08;1.35;;;1.00;;
25731;SDS011;13585;50.864;4.406;2023-06-04T08:31:34;1.27;;;0.95;;
25731;SDS011;13585;50.864;4.406;2023-06-04T08:34:02;2.00;;;0.88;;
25731;SDS011;13585;50.864;4.406;2023-06-04T08:36:30;2.15;;;0.82;;
25731;SDS011;13585;50.864;4.406;2023-06-04T08:38:57;2.80;;;0.98;;
25731;SDS011;13585;50.864;4.406;2023-06-04T08:41:30;1.40;;;1.00;;
25731;SDS011;13585;50.864;4.406;2023-06-04T08:44:03;1.30;;;1.02;;
25731;SDS011;13585;50.864;4.406;2023-06-04T08:46:31;1.23;;;0.88;;
25731;SDS011;13585;50.864;4.406;2023-06-04T08:48:59;2.35;;;0.70;;
25731;SDS011;13585;50.864;4.406;2023-06-04T08:51:29;1.55;;;0.93;;
25731;SDS011;13585;50.864;4.406;2023-06-04T08:53:58;0.90;;;0.80;;
25731;SDS011;13585;50.864;4.406;2023-06-04T08:56:24;1.50;;;0.90;;
25731;SDS011;13585;50.864;4.406;2023-06-04T08:58:51;1.25;;;1.00;;
25731;SDS011;13585;50.864;4.406;2023-06-04T09:01:18;1.45;;;1.10;;
25731;SDS011;13585;50.864;4.406;2023-06-04T09:03:43;2.08;;;1.00;;
25731;SDS011;13585;50.864;4.406;2023-06-04T09:06:10;1.70;;;0.90;;
25731;SDS011;13585;50.864;4.406;2023-06-04T09:08:37;1.25;;;0.90;;
25731;SDS011;13585;50.864;4.406;2023-06-04T09:11:07;1.38;;;1.05;;
25731;SDS011;13585;50.864;4.406;2023-06-04T09:13:36;2.13;;;1.20;;
25731;SDS011;13585;50.864;4.406;2023-06-04T09:16:04;1.10;;;1.00;;
25731;SDS011;13585;50.864;4.406;2023-06-04T09:18:33;1.00;;;0.90;;
25731;SDS011;13585;50.864;4.406;2023-06-04T09:21:05;3.22;;;0.90;;
25731;SDS011;13585;50.864;4.406;2023-06-04T09:23:36;1.38;;;0.90;;
25731;SDS011;13585;50.864;4.406;2023-06-04T09:26:09;1.08;;;0.98;;
25731;SDS011;13585;50.864;4.406;2023-06-04T09:28:35;1.42;;;0.93;;
25731;SDS011;13585;50.864;4.406;2023-06-04T09:31:07;1.80;;;0.93;;
25731;SDS011;13585;50.864;4.406;2023-06-04T09:36:12;1.10;;;1.00;;
25731;SDS011;13585;50.864;4.406;2023-06-04T09:38:38;1.85;;;1.10;;
25731;SDS011;13585;50.864;4.406;2023-06-04T09:41:10;2.92;;;0.98;;
25731;SDS011;13585;50.864;4.406;2023-06-04T09:43:36;0.95;;;0.85;;
25731;SDS011;13585;50.864;4.406;2023-06-04T09:46:12;1.75;;;0.90;;
25731;SDS011;13585;50.864;4.406;2023-06-04T09:48:39;1.52;;;1.00;;
25731;SDS011;13585;50.864;4.406;2023-06-04T09:51:06;1.60;;;1.00;;
25731;SDS011;13585;50.864;4.406;2023-06-04T09:53:40;2.75;;;1.00;;
25731;SDS011;13585;50.864;4.406;2023-06-04T09:56:17;2.33;;;1.15;;
25731;SDS011;13585;50.864;4.406;2023-06-04T09:58:47;1.38;;;0.95;;
25731;SDS011;13585;50.864;4.406;2023-06-04T10:01:17;1.38;;;1.00;;
25731;SDS011;13585;50.864;4.406;2023-06-04T10:03:45;0.73;;;0.73;;
25731;SDS011;13585;50.864;4.406;2023-06-04T10:06:16;1.50;;;1.00;;
25731;SDS011;13585;50.864;4.406;2023-06-04T10:08:45;1.45;;;1.20;;
25731;SDS011;13585;50.864;4.406;2023-06-04T10:11:13;1.77;;;1.08;;
25731;SDS011;13585;50.864;4.406;2023-06-04T10:16:30;1.50;;;1.02;;
25731;SDS011;13585;50.864;4.406;2023-06-04T10:18:57;2.03;;;1.00;;
25731;SDS011;13585;50.864;4.406;2023-06-04T10:21:23;1.27;;;1.02;;
25731;SDS011;13585;50.864;4.406;2023-06-04T10:23:51;1.35;;;1.00;;
25731;SDS011;13585;50.864;4.406;2023-06-04T10:26:16;1.50;;;1.20;;
25731;SDS011;13585;50.864;4.406;2023-06-04T10:28:43;1.52;;;1.10;;
25731;SDS011;13585;50.864;4.406;2023-06-04T10:31:09;1.55;;;1.05;;
25731;SDS011;13585;50.864;4.406;2023-06-04T10:33:35;2.08;;;1.20;;
25731;SDS011;13585;50.864;4.406;2023-06-04T10:36:15;4.13;;;1.27;;
25731;SDS011;13585;50.864;4.406;2023-06-04T10:39:01;3.30;;;1.20;;
25731;SDS011;13585;50.864;4.406;2023-06-04T10:41:28;2.90;;;1.27;;
25731;SDS011;13585;50.864;4.406;2023-06-04T10:44:00;1.38;;;1.15;;
25731;SDS011;13585;50.864;4.406;2023-06-04T10:46:39;2.40;;;1.40;;
25731;SDS011;13585;50.864;4.406;2023-06-04T10:49:09;2.00;;;1.23;;
25731;SDS011;13585;50.864;4.406;2023-06-04T10:51:39;2.77;;;1.40;;
25731;SDS011;13585;50.864;4.406;2023-06-04T10:54:05;3.38;;;1.25;;
25731;SDS011;13585;50.864;4.406;2023-06-04T10:56:37;2.22;;;1.50;;
25731;SDS011;13585;50.864;4.406;2023-06-04T10:59:16;1.92;;;1.27;;
25731;SDS011;13585;50.864;4.406;2023-06-04T11:01:42;3.25;;;1.30;;
25731;SDS011;13585;50.864;4.406;2023-06-04T11:04:18;1.88;;;1.20;;
25731;SDS011;13585;50.864;4.406;2023-06-04T11:07:09;3.17;;;1.63;;
25731;SDS011;13585;50.864;4.406;2023-06-04T11:09:37;2.05;;;1.38;;
25731;SDS011;13585;50.864;4.406;2023-06-04T11:12:12;2.67;;;1.42;;
25731;SDS011;13585;50.864;4.406;2023-06-04T11:14:37;2.90;;;1.70;;
25731;SDS011;13585;50.864;4.406;2023-06-04T11:17:12;3.38;;;1.50;;
25731;SDS011;13585;50.864;4.406;2023-06-04T11:19:38;3.08;;;1.67;;
25731;SDS011;13585;50.864;4.406;2023-06-04T11:22:05;2.97;;;1.50;;
25731;SDS011;13585;50.864;4.406;2023-06-04T11:24:32;1.88;;;1.40;;
25731;SDS011;13585;50.864;4.406;2023-06-04T11:26:58;3.30;;;1.40;;
25731;SDS011;13585;50.864;4.406;2023-06-04T11:29:27;2.85;;;1.65;;
25731;SDS011;13585;50.864;4.406;2023-06-04T11:31:53;3.75;;;1.90;;
25731;SDS011;13585;50.864;4.406;2023-06-04T11:34:22;2.67;;;1.55;;
25731;SDS011;13585;50.864;4.406;2023-06-04T11:36:48;3.15;;;1.67;;
25731;SDS011;13585;50.864;4.406;2023-06-04T11:39:21;2.67;;;1.55;;
25731;SDS011;13585;50.864;4.406;2023-06-04T11:41:47;3.15;;;1.80;;
25731;SDS011;13585;50.864;4.406;2023-06-04T11:44:17;3.63;;;1.73;;
25731;SDS011;13585;50.864;4.406;2023-06-04T11:46:44;3.10;;;1.70;;
25731;SDS011;13585;50.864;4.406;2023-06-04T11:49:16;3.38;;;1.70;;
25731;SDS011;13585;50.864;4.406;2023-06-04T11:51:49;3.38;;;1.50;;
25731;SDS011;13585;50.864;4.406;2023-06-04T11:54:16;4.18;;;1.67;;
25731;SDS011;13585;50.864;4.406;2023-06-04T11:56:43;2.03;;;1.60;;
25731;SDS011;13585;50.864;4.406;2023-06-04T11:59:09;2.45;;;1.30;;
25731;SDS011;13585;50.864;4.406;2023-06-04T12:01:39;3.10;;;1.33;;
25731;SDS011;13585;50.864;4.406;2023-06-04T12:04:12;2.40;;;1.40;;
25731;SDS011;13585;50.864;4.406;2023-06-04T12:06:38;3.38;;;1.58;;
25731;SDS011;13585;50.864;4.406;2023-06-04T12:09:19;2.10;;;1.40;;
25731;SDS011;13585;50.864;4.406;2023-06-04T12:11:48;1.92;;;1.23;;
25731;SDS011;13585;50.864;4.406;2023-06-04T12:14:17;1.20;;;1.08;;
25731;SDS011;13585;50.864;4.406;2023-06-04T12:16:53;2.13;;;1.52;;
25731;SDS011;13585;50.864;4.406;2023-06-04T12:19:20;4.95;;;1.77;;
25731;SDS011;13585;50.864;4.406;2023-06-04T12:21:45;1.80;;;1.30;;
25731;SDS011;13585;50.864;4.406;2023-06-04T12:24:11;4.40;;;1.35;;
25731;SDS011;13585;50.864;4.406;2023-06-04T12:26:38;4.00;;;1.50;;
25731;SDS011;13585;50.864;4.406;2023-06-04T12:29:12;1.95;;;1.30;;
25731;SDS011;13585;50.864;4.406;2023-06-04T12:31:40;2.75;;;1.23;;
25731;SDS011;13585;50.864;4.406;2023-06-04T12:34:08;3.53;;;1.48;;
25731;SDS011;13585;50.864;4.406;2023-06-04T12:36:34;1.77;;;1.33;;
25731;SDS011;13585;50.864;4.406;2023-06-04T12:39:01;2.47;;;1.10;;
25731;SDS011;13585;50.864;4.406;2023-06-04T12:41:28;6.13;;;1.50;;
25731;SDS011;13585;50.864;4.406;2023-06-04T12:43:54;2.72;;;1.33;;
25731;SDS011;13585;50.864;4.406;2023-06-04T12:46:21;4.20;;;1.30;;
25731;SDS011;13585;50.864;4.406;2023-06-04T12:48:47;5.72;;;1.40;;
25731;SDS011;13585;50.864;4.406;2023-06-04T12:51:13;4.38;;;1.42;;
25731;SDS011;13585;50.864;4.406;2023-06-04T12:53:40;1.85;;;1.27;;
25731;SDS011;13585;50.864;4.406;2023-06-04T12:56:09;3.28;;;1.10;;
25731;SDS011;13585;50.864;4.406;2023-06-04T12:58:35;2.58;;;1.33;;
25731;SDS011;13585;50.864;4.406;2023-06-04T13:01:01;2.40;;;1.23;;
25731;SDS011;13585;50.864;4.406;2023-06-04T13:03:26;2.08;;;1.33;;
25731;SDS011;13585;50.864;4.406;2023-06-04T13:05:52;2.35;;;1.30;;
25731;SDS011;13585;50.864;4.406;2023-06-04T13:08:20;1.88;;;1.20;;
25731;SDS011;13585;50.864;4.406;2023-06-04T13:10:47;4.20;;;1.50;;
25731;SDS011;13585;50.864;4.406;2023-06-04T13:13:13;2.35;;;1.35;;
25731;SDS011;13585;50.864;4.406;2023-06-04T13:15:42;1.88;;;1.33;;
25731;SDS011;13585;50.864;4.406;2023-06-04T13:18:09;1.98;;;1.40;;
25731;SDS011;13585;50.864;4.406;2023-06-04T13:20:39;2.85;;;1.15;;
25731;SDS011;13585;50.864;4.406;2023-06-04T13:23:05;2.38;;;1.27;;
25731;SDS011;13585;50.864;4.406;2023-06-04T13:25:34;3.50;;;1.25;;
25731;SDS011;13585;50.864;4.406;2023-06-04T13:28:01;2.65;;;1.42;;
25731;SDS011;13585;50.864;4.406;2023-06-04T13:30:27;1.95;;;1.20;;
25731;SDS011;13585;50.864;4.406;2023-06-04T13:32:53;4.63;;;1.40;;
25731;SDS011;13585;50.864;4.406;2023-06-04T13:35:19;1.92;;;1.30;;
25731;SDS011;13585;50.864;4.406;2023-06-04T13:37:45;2.15;;;1.20;;
25731;SDS011;13585;50.864;4.406;2023-06-04T13:40:10;2.90;;;1.20;;
25731;SDS011;13585;50.864;4.406;2023-06-04T13:42:37;1.73;;;1.17;;
25731;SDS011;13585;50.864;4.406;2023-06-04T13:45:03;2.85;;;1.00;;
25731;SDS011;13585;50.864;4.406;2023-06-04T13:47:29;3.17;;;1.30;;
25731;SDS011;13585;50.864;4.406;2023-06-04T13:49:56;2.45;;;1.05;;
25731;SDS011;13585;50.864;4.406;2023-06-04T13:52:22;3.38;;;1.35;;
25731;SDS011;13585;50.864;4.406;2023-06-04T13:54:53;1.70;;;1.10;;
25731;SDS011;13585;50.864;4.406;2023-06-04T13:59:45;2.15;;;1.30;;
25731;SDS011;13585;50.864;4.406;2023-06-04T14:02:10;1.60;;;1.00;;
25731;SDS011;13585;50.864;4.406;2023-06-04T14:04:36;2.08;;;1.17;;
25731;SDS011;13585;50.864;4.406;2023-06-04T14:07:08;1.92;;;1.23;;
25731;SDS011;13585;50.864;4.406;2023-06-04T14:12:17;2.83;;;1.30;;
25731;SDS011;13585;50.864;4.406;2023-06-04T14:14:43;2.33;;;1.27;;
25731;SDS011;13585;50.864;4.406;2023-06-04T14:17:08;1.27;;;1.15;;
25731;SDS011;13585;50.864;4.406;2023-06-04T14:19:34;3.80;;;1.50;;
25731;SDS011;13585;50.864;4.406;2023-06-04T14:22:00;1.60;;;1.20;;
25731;SDS011;13585;50.864;4.406;2023-06-04T14:24:29;4.07;;;1.58;;
25731;SDS011;13585;50.864;4.406;2023-06-04T14:26:55;3.15;;;1.30;;
25731;SDS011;13585;50.864;4.406;2023-06-04T14:29:22;1.33;;;1.10;;
25731;SDS011;13585;50.864;4.406;2023-06-04T14:31:48;5.50;;;1.40;;
25731;SDS011;13585;50.864;4.406;2023-06-04T14:34:16;2.10;;;1.20;;
25731;SDS011;13585;50.864;4.406;2023-06-04T14:36:42;2.92;;;1.50;;
25731;SDS011;13585;50.864;4.406;2023-06-04T14:39:08;1.73;;;1.20;;
25731;SDS011;13585;50.864;4.406;2023-06-04T14:41:33;1.98;;;1.20;;
25731;SDS011;13585;50.864;4.406;2023-06-04T14:43:59;2.22;;;1.30;;
25731;SDS011;13585;50.864;4.406;2023-06-04T14:46:25;1.98;;;1.40;;
25731;SDS011;13585;50.864;4.406;2023-06-04T14:48:53;2.22;;;1.13;;
25731;SDS011;13585;50.864;4.406;2023-06-04T14:51:19;3.38;;;1.27;;
25731;SDS011;13585;50.864;4.406;2023-06-04T14:53:46;1.90;;;1.20;;
25731;SDS011;13585;50.864;4.406;2023-06-04T14:56:13;1.75;;;1.25;;
25731;SDS011;13585;50.864;4.406;2023-06-04T14:58:38;1.23;;;1.05;;
25731;SDS011;13585;50.864;4.406;2023-06-04T15:01:04;2.42;;;1.30;;
25731;SDS011;13585;50.864;4.406;2023-06-04T15:03:32;3.90;;;1.40;;
25731;SDS011;13585;50.864;4.406;2023-06-04T15:05:57;3.42;;;1.40;;